Time;durP1;ratioP1;P1;durP2;ratioP2;P2;SDS_P1;SDS_P2;PMS_P1;PMS_P2;Temp;Humidity;BMP_temperature;BMP_pressure;BME280_temperature;BME280_humidity;BME280_pressure;Samples;Min_cycle;Max_cycle;Signal;HPM_P1;HPM_P2
2023/11/09 00:04:23;;;;;;;4.10;3.40;;;;;;;;;;12824737;22;20469;-71
2023/11/09 00:09:20;;;;;;;7.78;3.33;;;;;;;;;;12824666;22;20015;-69
2023/11/09 00:14:17;;;;;;;3.95;3.25;;;;;;;;;;12825500;22;20389;-69
2023/11/09 00:19:14;;;;;;;6.88;3.67;;;;;;;;;;12823595;22;20031;-69
2023/11/09 00:24:12;;;;;;;5.80;3.50;;;;;;;;;;12824479;22;20050;-69
2023/11/09 00:29:09;;;;;;;8.30;3.70;;;;;;;;;;12796976;22;20020;-71
2023/11/09 00:34:05;;;;;;;4.97;3.20;;;;;;;;;;12817631;22;20023;-72
2023/11/09 00:39:02;;;;;;;5.97;3.50;;;;;;;;;;12824100;22;20023;-71
2023/11/09 00:43:58;;;;;;;5.82;4.20;;;;;;;;;;12794613;22;20024;-70
2023/11/09 00:48:55;;;;;;;7.50;4.03;;;;;;;;;;12817637;22;20035;-71
2023/11/09 00:53:52;;;;;;;4.60;4.07;;;;;;;;;;12822257;22;20026;-71
2023/11/09 00:58:48;;;;;;;5.97;4.00;;;;;;;;;;12825054;22;20073;-69
2023/11/09 01:03:44;;;;;;;5.43;3.95;;;;;;;;;;12826920;22;20053;-70
2023/11/09 01:08:41;;;;;;;5.50;3.80;;;;;;;;;;12827207;22;20023;-70
2023/11/09 01:13:38;;;;;;;11.48;4.30;;;;;;;;;;12798565;22;20023;-69
2023/11/09 01:18:36;;;;;;;5.20;3.92;;;;;;;;;;12825665;22;20118;-70
2023/11/09 01:23:32;;;;;;;3.65;3.33;;;;;;;;;;12825762;22;20046;-70
2023/11/09 01:28:29;;;;;;;7.05;3.88;;;;;;;;;;12825599;22;20027;-69
2023/11/09 01:33:25;;;;;;;6.80;3.67;;;;;;;;;;12797985;22;20023;-70
2023/11/09 01:38:25;;;;;;;4.63;3.45;;;;;;;;;;12818101;22;20473;-69
2023/11/09 01:43:21;;;;;;;6.05;3.78;;;;;;;;;;12825501;22;20023;-69
2023/11/09 01:48:21;;;;;;;4.03;3.65;;;;;;;;;;12819972;22;20023;-70
2023/11/09 01:53:18;;;;;;;5.07;4.05;;;;;;;;;;12825699;22;20361;-70
2023/11/09 01:58:15;;;;;;;4.28;3.58;;;;;;;;;;12823095;22;20023;-69
2023/11/09 02:03:12;;;;;;;7.43;3.97;;;;;;;;;;12823299;22;20050;-68
2023/11/09 02:08:08;;;;;;;4.80;3.38;;;;;;;;;;12823626;22;20101;-69
2023/11/09 02:13:04;;;;;;;6.70;3.47;;;;;;;;;;12822863;22;20523;-69
2023/11/09 02:18:01;;;;;;;5.38;3.88;;;;;;;;;;12823877;22;20023;-70
2023/11/09 02:22:58;;;;;;;5.75;4.03;;;;;;;;;;12822390;22;20050;-70
2023/11/09 02:27:55;;;;;;;4.25;3.85;;;;;;;;;;12821388;22;20027;-70
2023/11/09 02:32:52;;;;;;;6.20;4.18;;;;;;;;;;12793708;22;20034;-70
2023/11/09 02:37:48;;;;;;;3.90;3.50;;;;;;;;;;12813838;22;20071;-69
2023/11/09 02:42:44;;;;;;;4.22;3.63;;;;;;;;;;12820938;22;20027;-68
2023/11/09 02:47:42;;;;;;;5.38;4.30;;;;;;;;;;12821680;22;20047;-72
2023/11/09 02:52:39;;;;;;;4.05;3.65;;;;;;;;;;12815597;22;20105;-71
2023/11/09 02:57:36;;;;;;;4.72;3.80;;;;;;;;;;12818217;22;20034;-72
2023/11/09 03:02:34;;;;;;;4.30;3.90;;;;;;;;;;12820042;22;20026;-69
2023/11/09 03:07:31;;;;;;;4.50;4.10;;;;;;;;;;12820277;22;20109;-69
2023/11/09 03:12:27;;;;;;;6.07;3.63;;;;;;;;;;12821357;22;20031;-69
2023/11/09 03:17:24;;;;;;;5.80;4.72;;;;;;;;;;12820334;22;20023;-69
2023/11/09 03:22:20;;;;;;;4.88;4.38;;;;;;;;;;12820642;22;20050;-69
2023/11/09 03:27:17;;;;;;;5.93;4.28;;;;;;;;;;12820896;22;20090;-69
2023/11/09 03:32:18;;;;;;;4.20;3.78;;;;;;;;;;12821285;22;20023;-69
2023/11/09 03:37:15;;;;;;;7.10;4.53;;;;;;;;;;12820500;22;20388;-71
2023/11/09 03:42:14;;;;;;;4.68;4.20;;;;;;;;;;12819237;22;20411;-71
2023/11/09 03:47:10;;;;;;;4.88;3.60;;;;;;;;;;12820008;22;20049;-70
2023/11/09 03:52:08;;;;;;;4.93;3.63;;;;;;;;;;12814638;22;20123;-68
2023/11/09 03:57:05;;;;;;;5.47;4.03;;;;;;;;;;12815917;22;20027;-68
2023/11/09 04:02:01;;;;;;;4.38;3.90;;;;;;;;;;12819974;22;20034;-69
2023/11/09 04:06:58;;;;;;;5.47;3.60;;;;;;;;;;12820545;22;20635;-69
2023/11/09 04:11:55;;;;;;;3.85;3.55;;;;;;;;;;12820094;22;20027;-69
2023/11/09 04:16:51;;;;;;;5.43;4.50;;;;;;;;;;12820199;22;20526;-69
2023/11/09 04:21:49;;;;;;;5.53;4.28;;;;;;;;;;12820526;22;20081;-68
2023/11/09 04:26:45;;;;;;;4.00;3.70;;;;;;;;;;12821267;22;20037;-68
2023/11/09 04:31:47;;;;;;;4.47;4.00;;;;;;;;;;12823634;22;20058;-68
2023/11/09 04:36:44;;;;;;;4.30;3.90;;;;;;;;;;12823409;22;20043;-68
2023/11/09 04:41:41;;;;;;;5.15;4.75;;;;;;;;;;12822428;22;20692;-68
2023/11/09 04:46:41;;;;;;;5.30;4.80;;;;;;;;;;12823916;22;20031;-68
2023/11/09 04:51:38;;;;;;;6.55;4.90;;;;;;;;;;12820807;22;20075;-68
2023/11/09 04:56:53;;;;;;;5.38;4.88;;;;;;;;;;12826640;22;20024;-68
2023/11/09 05:07:06;;;;;;;5.18;4.70;;;;;;;;;;12825919;22;20477;-68
2023/11/09 05:12:05;;;;;;;6.15;5.55;;;;;;;;;;12824687;22;20046;-68
2023/11/09 05:17:01;;;;;;;5.85;5.32;;;;;;;;;;12825214;22;20031;-68
2023/11/09 05:21:58;;;;;;;7.38;5.22;;;;;;;;;;12820358;22;20034;-69
2023/11/09 05:26:56;;;;;;;6.13;5.55;;;;;;;;;;12820945;22;20046;-69
2023/11/09 05:31:53;;;;;;;5.97;5.38;;;;;;;;;;12821271;22;20038;-70
2023/11/09 05:36:49;;;;;;;5.82;5.05;;;;;;;;;;12803443;22;20472;-71
2023/11/09 05:41:47;;;;;;;6.32;5.72;;;;;;;;;;12821389;22;20034;-71
2023/11/09 05:46:43;;;;;;;6.05;5.50;;;;;;;;;;12822823;22;20477;-69
2023/11/09 05:51:40;;;;;;;7.70;5.93;;;;;;;;;;12819553;22;20364;-70
2023/11/09 05:56:36;;;;;;;6.57;5.88;;;;;;;;;;12816787;22;20501;-70
2023/11/09 06:01:35;;;;;;;6.25;5.65;;;;;;;;;;12795062;22;20027;-70
2023/11/09 06:06:32;;;;;;;6.50;5.88;;;;;;;;;;12815791;22;20350;-71
2023/11/09 06:11:31;;;;;;;6.38;5.63;;;;;;;;;;12819563;22;20034;-72
2023/11/09 06:16:30;;;;;;;7.97;6.47;;;;;;;;;;12789252;22;20081;-71
2023/11/09 06:21:26;;;;;;;6.95;6.25;;;;;;;;;;12817284;22;20027;-72
2023/11/09 06:26:24;;;;;;;6.53;5.93;;;;;;;;;;12817624;22;20027;-71
2023/11/09 06:31:22;;;;;;;6.97;6.40;;;;;;;;;;12793364;22;20054;-72
2023/11/09 06:36:19;;;;;;;6.68;6.18;;;;;;;;;;12819640;22;20035;-73
2023/11/09 06:41:16;;;;;;;6.05;5.50;;;;;;;;;;12819358;22;20023;-74
2023/11/09 06:46:12;;;;;;;7.80;5.97;;;;;;;;;;12793731;22;20026;-72
2023/11/09 06:51:09;;;;;;;7.20;6.40;;;;;;;;;;12820457;22;20054;-71
2023/11/09 06:56:05;;;;;;;6.97;6.28;;;;;;;;;;12791250;22;20026;-73
2023/11/09 07:01:04;;;;;;;6.90;6.20;;;;;;;;;;12818621;22;20072;-76
2023/11/09 07:06:00;;;;;;;6.55;5.90;;;;;;;;;;12812569;22;20117;-74
2023/11/09 07:11:00;;;;;;;6.70;6.20;;;;;;;;;;12819133;22;20088;-72
2023/11/09 07:15:57;;;;;;;6.40;5.80;;;;;;;;;;12818833;22;20097;-74
2023/11/09 07:20:54;;;;;;;6.38;5.80;;;;;;;;;;12819550;22;20019;-74
2023/11/09 07:26:05;;;;;;;7.38;6.55;;;;;;;;;;12795129;22;20072;-73
2023/11/09 07:31:01;;;;;;;7.00;6.20;;;;;;;;;;12820280;22;20102;-73
2023/11/09 07:35:59;;;;;;;7.35;5.93;;;;;;;;;;12817599;22;20022;-73
2023/11/09 07:40:55;;;;;;;6.88;6.28;;;;;;;;;;12818978;22;20050;-72
2023/11/09 07:45:53;;;;;;;6.43;5.93;;;;;;;;;;12819767;22;20020;-72
2023/11/09 07:50:50;;;;;;;6.78;6.07;;;;;;;;;;12818065;22;20027;-72
2023/11/09 07:55:48;;;;;;;5.80;5.30;;;;;;;;;;12817544;22;20023;-74
2023/11/09 08:00:45;;;;;;;6.78;6.20;;;;;;;;;;12818654;22;20028;-74
2023/11/09 08:05:42;;;;;;;6.35;5.75;;;;;;;;;;12824338;22;20031;-73
2023/11/09 08:10:38;;;;;;;6.40;5.80;;;;;;;;;;12818721;22;20420;-72
2023/11/09 08:15:35;;;;;;;6.38;5.82;;;;;;;;;;12824906;22;20046;-73
2023/11/09 08:20:31;;;;;;;7.50;6.80;;;;;;;;;;12793322;22;20081;-73
2023/11/09 08:25:28;;;;;;;6.45;5.85;;;;;;;;;;12822582;22;20015;-73
2023/11/09 08:30:27;;;;;;;6.50;6.00;;;;;;;;;;12824046;22;20039;-73
2023/11/09 08:35:24;;;;;;;9.20;5.07;;;;;;;;;;12822625;22;20015;-73
2023/11/09 08:40:27;;;;;;;7.32;5.50;;;;;;;;;;12822592;22;20046;-72
2023/11/09 08:45:27;;;;;;;5.78;5.25;;;;;;;;;;12795568;22;20700;-73
2023/11/09 08:50:24;;;;;;;11.55;5.75;;;;;;;;;;12823458;22;20035;-73
2023/11/09 08:55:22;;;;;;;9.60;5.15;;;;;;;;;;12822161;22;20069;-74
2023/11/09 09:00:19;;;;;;;5.95;5.35;;;;;;;;;;12822584;22;20522;-73
2023/11/09 09:05:18;;;;;;;5.65;5.05;;;;;;;;;;12823340;22;20015;-73
2023/11/09 09:10:20;;;;;;;6.18;5.15;;;;;;;;;;12823434;22;20019;-72
2023/11/09 09:15:19;;;;;;;5.45;4.95;;;;;;;;;;12821832;22;20090;-73
2023/11/09 09:20:20;;;;;;;5.40;5.00;;;;;;;;;;12815199;22;20083;-72
2023/11/09 09:25:18;;;;;;;7.07;5.10;;;;;;;;;;12821815;22;20042;-73
2023/11/09 09:30:18;;;;;;;6.00;5.50;;;;;;;;;;12821611;22;20019;-73
2023/11/09 09:35:15;;;;;;;5.95;5.35;;;;;;;;;;12817968;22;20453;-72
2023/11/09 09:40:15;;;;;;;7.82;5.50;;;;;;;;;;12820623;22;20023;-74
2023/11/09 09:45:15;;;;;;;5.40;4.93;;;;;;;;;;12793517;22;20055;-74
2023/11/09 09:50:14;;;;;;;5.22;4.80;;;;;;;;;;12822449;22;20500;-75
2023/11/09 09:55:11;;;;;;;5.90;5.40;;;;;;;;;;12822177;22;20026;-73
2023/11/09 10:00:13;;;;;;;5.95;5.50;;;;;;;;;;12820990;22;20603;-74
2023/11/09 10:05:12;;;;;;;6.30;5.68;;;;;;;;;;12820447;22;20023;-74
2023/11/09 10:10:09;;;;;;;6.25;5.75;;;;;;;;;;12821795;22;20090;-74
2023/11/09 10:15:15;;;;;;;6.38;5.78;;;;;;;;;;12822041;22;20509;-75
2023/11/09 10:20:13;;;;;;;5.80;5.40;;;;;;;;;;12820739;22;20019;-74
2023/11/09 10:25:12;;;;;;;6.60;6.00;;;;;;;;;;12821389;22;20027;-74
2023/11/09 10:30:14;;;;;;;6.35;5.85;;;;;;;;;;12815018;22;20023;-74
2023/11/09 10:35:13;;;;;;;5.72;5.32;;;;;;;;;;12821013;22;20027;-75
2023/11/09 10:40:13;;;;;;;6.55;6.05;;;;;;;;;;12821640;22;20542;-74
2023/11/09 10:45:13;;;;;;;6.40;5.90;;;;;;;;;;12820490;22;20072;-75
2023/11/09 10:50:13;;;;;;;7.30;5.68;;;;;;;;;;12821062;22;20023;-75
2023/11/09 10:55:16;;;;;;;6.20;5.70;;;;;;;;;;12794512;22;20030;-71
2023/11/09 11:11:13;;;;;;;6.80;6.30;;;;;;;;;;12881989;22;20014;-74
2023/11/09 11:16:23;;;;;;;6.97;6.15;;;;;;;;;;12882838;22;20019;-75
2023/11/09 11:21:20;;;;;;;6.65;6.13;;;;;;;;;;12857147;22;20102;-75
2023/11/09 11:26:18;;;;;;;6.43;5.90;;;;;;;;;;12855715;22;20019;-74
2023/11/09 11:31:15;;;;;;;7.30;6.70;;;;;;;;;;12877705;22;20483;-75
2023/11/09 11:36:24;;;;;;;10.77;7.30;;;;;;;;;;12885129;22;20072;-74
2023/11/09 11:41:22;;;;;;;8.70;7.45;;;;;;;;;;12860608;22;20029;-75
2023/11/09 12:47:25;;;;;;;5.00;4.60;;;;;;;;;;12888445;22;20018;-73
2023/11/09 12:52:22;;;;;;;6.15;4.90;;;;;;;;;;12884270;22;20390;-75
2023/11/09 13:40:00;;;;;;;;;;;;;;;;;;;;;
2023/11/09 13:51:33;;;;;;;6.18;5.57;;;;;;;;;;12506827;23;20034;-75
2023/11/09 14:37:44;;;;;;;9.60;4.78;;;;;;;;;;12886547;22;20018;-73
2023/11/09 14:42:43;;;;;;;8.57;5.10;;;;;;;;;;12882555;22;20333;-75
2023/11/09 14:47:46;;;;;;;7.28;5.53;;;;;;;;;;12862858;22;20042;-75
2023/11/09 14:53:02;;;;;;;8.88;5.80;;;;;;;;;;12876400;22;20018;-76
2023/11/09 14:58:07;;;;;;;9.93;6.00;;;;;;;;;;12878850;22;20026;-72
2023/11/09 15:03:09;;;;;;;6.88;5.50;;;;;;;;;;12876901;22;20034;-72
2023/11/09 15:08:09;;;;;;;7.38;6.00;;;;;;;;;;12881960;22;20546;-74
2023/11/09 15:13:07;;;;;;;10.63;5.97;;;;;;;;;;12883062;22;20022;-73
2023/11/09 15:18:05;;;;;;;8.73;6.10;;;;;;;;;;12883441;22;20091;-72
2023/11/09 15:23:05;;;;;;;10.20;5.72;;;;;;;;;;12853414;22;20364;-73
2023/11/09 15:28:05;;;;;;;10.35;5.80;;;;;;;;;;12881408;22;20076;-73
2023/11/09 15:33:05;;;;;;;12.05;5.47;;;;;;;;;;12839675;22;20022;-73
2023/11/09 15:38:04;;;;;;;7.93;6.07;;;;;;;;;;12879631;22;20019;-73
2023/11/09 15:43:07;;;;;;;11.43;6.93;;;;;;;;;;12880062;22;20050;-74
2023/11/09 15:58:37;;;;;;;8.57;6.23;;;;;;;;;;12852620;22;20019;-72
2023/11/09 16:03:39;;;;;;;10.63;6.47;;;;;;;;;;12877815;22;20023;-71
2023/11/09 16:08:38;;;;;;;14.65;7.22;;;;;;;;;;12850716;22;20059;-71
2023/11/09 16:13:37;;;;;;;11.38;6.90;;;;;;;;;;12880119;22;20030;-71
2023/11/09 16:18:39;;;;;;;12.90;7.20;;;;;;;;;;12877721;22;20019;-71
2023/11/09 16:23:48;;;;;;;15.32;8.57;;;;;;;;;;12878957;22;20019;-71
2023/11/09 16:29:00;;;;;;;9.27;7.25;;;;;;;;;;12881980;22;20092;-74
2023/11/09 16:33:58;;;;;;;10.48;6.93;;;;;;;;;;12854397;22;20026;-72
2023/11/09 16:38:58;;;;;;;10.63;7.32;;;;;;;;;;12874338;22;20019;-72
2023/11/09 16:43:54;;;;;;;13.40;7.35;;;;;;;;;;12874308;22;20400;-72
2023/11/09 16:48:54;;;;;;;10.02;7.53;;;;;;;;;;12863965;22;20384;-72
2023/11/09 16:53:55;;;;;;;9.95;7.28;;;;;;;;;;12878823;22;20051;-72
2023/11/09 17:04:05;;;;;;;18.30;7.78;;;;;;;;;;12863813;22;20365;-72
2023/11/09 17:09:35;;;;;;;;;;;;;;;;;;;;;
2023/11/09 17:14:58;;;;;;;14.65;7.95;;;;;;;;;;12853165;22;19906;-72
2023/11/09 17:20:04;;;;;;;16.98;8.48;;;;;;;;;;12878857;22;20030;-72
2023/11/09 17:25:04;;;;;;;16.23;8.88;;;;;;;;;;12850342;22;20420;-72
2023/11/09 17:30:09;;;;;;;18.17;8.90;;;;;;;;;;12880544;22;20024;-72
2023/11/09 17:35:12;;;;;;;11.00;9.15;;;;;;;;;;12867271;22;20019;-71
2023/11/09 17:40:13;;;;;;;12.13;9.40;;;;;;;;;;12881942;22;20038;-72
2023/11/09 17:45:13;;;;;;;15.95;9.23;;;;;;;;;;12883195;22;20383;-72
2023/11/09 17:50:22;;;;;;;15.55;9.50;;;;;;;;;;12882348;22;20019;-72
2023/11/09 17:55:36;;;;;;;11.82;9.57;;;;;;;;;;12882348;22;20413;-72
2023/11/09 18:00:37;;;;;;;18.77;8.88;;;;;;;;;;12880488;22;20026;-72
2023/11/09 18:05:52;;;;;;;23.73;9.37;;;;;;;;;;12863017;22;20042;-72
2023/11/09 18:10:51;;;;;;;14.77;10.40;;;;;;;;;;12882008;22;20083;-72
2023/11/09 18:15:53;;;;;;;16.98;11.23;;;;;;;;;;12882561;22;20073;-72
2023/11/09 18:20:55;;;;;;;17.48;9.55;;;;;;;;;;12881978;22;20022;-71
2023/11/09 18:25:58;;;;;;;17.88;10.25;;;;;;;;;;12855348;22;20015;-72
2023/11/09 18:30:56;;;;;;;15.50;9.60;;;;;;;;;;12880546;22;20015;-71
2023/11/09 18:41:26;;;;;;;16.53;9.47;;;;;;;;;;12819087;22;20027;-72
2023/11/09 18:46:29;;;;;;;10.65;9.50;;;;;;;;;;12782778;22;20023;-72
2023/11/09 18:51:33;;;;;;;13.32;9.98;;;;;;;;;;12740204;22;20058;-72
2023/11/09 18:56:31;;;;;;;17.63;10.93;;;;;;;;;;12727524;22;20074;-72
2023/11/09 19:01:36;;;;;;;17.83;9.85;;;;;;;;;;12756678;22;20081;-71
2023/11/09 19:11:47;;;;;;;13.73;9.63;;;;;;;;;;12821349;22;20034;-72
2023/11/09 19:16:45;;;;;;;15.70;8.88;;;;;;;;;;12820777;22;20469;-72
2023/11/09 19:21:46;;;;;;;15.43;9.88;;;;;;;;;;12817103;22;20024;-72
2023/11/09 19:26:53;;;;;;;13.05;9.93;;;;;;;;;;12838051;22;20018;-72
2023/11/09 19:31:52;;;;;;;15.27;10.30;;;;;;;;;;12757538;22;20046;-72
2023/11/09 19:36:53;;;;;;;14.45;10.52;;;;;;;;;;12784644;22;20132;-72
2023/11/09 19:42:06;;;;;;;15.38;10.98;;;;;;;;;;12757397;22;20050;-71
2023/11/09 19:47:06;;;;;;;16.80;10.95;;;;;;;;;;12755145;22;20030;-71
2023/11/09 19:52:09;;;;;;;15.70;10.50;;;;;;;;;;12754445;22;20091;-72
2023/11/09 20:07:54;;;;;;;11.40;10.25;;;;;;;;;;12697222;22;20020;-72
2023/11/09 20:12:53;;;;;;;11.38;10.07;;;;;;;;;;12733366;22;20028;-72
2023/11/09 20:18:00;;;;;;;15.75;10.57;;;;;;;;;;12734799;22;20028;-71
2023/11/09 20:22:58;;;;;;;16.02;11.00;;;;;;;;;;12753461;22;20077;-72
2023/11/09 20:27:59;;;;;;;10.45;9.32;;;;;;;;;;12751393;22;20619;-72
2023/11/09 20:32:59;;;;;;;15.55;10.50;;;;;;;;;;12759506;22;20465;-71
2023/11/09 20:38:14;;;;;;;11.20;9.75;;;;;;;;;;12813169;22;20031;-72
2023/11/09 20:43:22;;;;;;;13.77;9.85;;;;;;;;;;12822510;22;20106;-72
2023/11/09 20:48:23;;;;;;;11.85;9.65;;;;;;;;;;12820864;22;20106;-72
2023/11/09 20:53:25;;;;;;;13.43;9.35;;;;;;;;;;12815083;22;20022;-71
2023/11/09 21:04:22;;;;;;;11.45;8.48;;;;;;;;;;12793453;22;20077;-68
2023/11/09 21:09:28;;;;;;;10.00;8.20;;;;;;;;;;12815293;22;20027;-69
2023/11/09 21:14:29;;;;;;;12.23;8.55;;;;;;;;;;12817746;22;20418;-69
2023/11/09 21:19:27;;;;;;;14.40;8.43;;;;;;;;;;12841042;22;20023;-69
2023/11/09 21:24:24;;;;;;;13.20;7.70;;;;;;;;;;12812460;22;20034;-68
2023/11/09 21:29:27;;;;;;;10.00;8.00;;;;;;;;;;12818805;22;20057;-68
2023/11/09 21:34:26;;;;;;;10.05;8.20;;;;;;;;;;12816106;22;20092;-68
2023/11/09 21:39:25;;;;;;;11.90;7.35;;;;;;;;;;12818594;22;20461;-68
2023/11/09 21:44:29;;;;;;;17.95;8.30;;;;;;;;;;12818230;22;20407;-68
2023/11/09 21:49:28;;;;;;;10.93;7.47;;;;;;;;;;12819247;22;20089;-68
2023/11/09 21:54:34;;;;;;;18.23;7.88;;;;;;;;;;12813673;22;20384;-68
2023/11/09 21:59:36;;;;;;;10.88;7.20;;;;;;;;;;12818764;22;20062;-68
2023/11/09 22:04:37;;;;;;;10.55;6.25;;;;;;;;;;12819759;22;20043;-68
2023/11/09 22:09:37;;;;;;;14.93;6.60;;;;;;;;;;12818727;22;20035;-68
2023/11/09 22:14:41;;;;;;;10.90;5.90;;;;;;;;;;12819950;22;20085;-68
2023/11/09 22:19:40;;;;;;;7.45;4.50;;;;;;;;;;12817347;22;20016;-68
2023/11/09 22:24:40;;;;;;;8.95;5.25;;;;;;;;;;12812973;22;20015;-68
2023/11/09 22:29:37;;;;;;;11.57;4.93;;;;;;;;;;12817314;22;20015;-68
2023/11/09 22:34:36;;;;;;;12.48;5.18;;;;;;;;;;12820014;22;20402;-69
2023/11/09 22:39:35;;;;;;;13.07;5.15;;;;;;;;;;12806255;22;20023;-69
2023/11/09 22:44:34;;;;;;;6.20;4.03;;;;;;;;;;12817665;22;20485;-68
2023/11/09 22:49:31;;;;;;;8.98;4.65;;;;;;;;;;12818700;22;20023;-69
2023/11/09 22:54:28;;;;;;;7.93;4.05;;;;;;;;;;12818312;22;20102;-69
2023/11/09 22:59:27;;;;;;;5.55;4.03;;;;;;;;;;12817026;22;20118;-69
2023/11/09 23:04:24;;;;;;;12.35;4.68;;;;;;;;;;12822335;22;20029;-68
2023/11/09 23:09:21;;;;;;;13.65;4.00;;;;;;;;;;12817423;22;20088;-68
2023/11/09 23:14:21;;;;;;;10.35;4.40;;;;;;;;;;12816375;22;20407;-69
2023/11/09 23:19:18;;;;;;;10.88;4.03;;;;;;;;;;12815645;22;20033;-70
2023/11/09 23:24:20;;;;;;;10.35;3.75;;;;;;;;;;12817731;22;20425;-69
2023/11/09 23:29:22;;;;;;;9.20;3.33;;;;;;;;;;12817045;22;20098;-68
2023/11/09 23:34:19;;;;;;;6.97;3.38;;;;;;;;;;12820316;22;20122;-68
2023/11/09 23:39:19;;;;;;;8.07;3.63;;;;;;;;;;12818766;22;20023;-69
2023/11/09 23:44:20;;;;;;;8.57;3.90;;;;;;;;;;12821641;22;20023;-69
2023/11/09 23:49:21;;;;;;;7.05;3.60;;;;;;;;;;12821474;22;20479;-69
2023/11/09 23:54:18;;;;;;;11.63;3.30;;;;;;;;;;12822112;22;20381;-68
2023/11/09 23:59:15;;;;;;;8.02;3.70;;;;;;;;;;12821674;22;20034;-69
